Time;durP1;ratioP1;P1;durP2;ratioP2;P2;SDS_P1;SDS_P2;PMS_P1;PMS_P2;Temp;Humidity;BMP_temperature;BMP_pressure;BME280_temperature;BME280_humidity;BME280_pressure;Samples;Min_cycle;Max_cycle;Signal;HPM_P1;HPM_P2
2022/10/22 00:01:46;;;;;;;7.68;4.22;;;;;;;10.39;100.00;100908.09;6181122;23;20001;-89
2022/10/22 00:04:11;;;;;;;8.02;4.20;;;;;;;10.42;100.00;100920.16;6180080;23;20001;-89
2022/10/22 00:06:36;;;;;;;11.55;4.15;;;;;;;10.39;100.00;100926.25;6181782;23;20012;-89
2022/10/22 00:09:02;;;;;;;12.90;4.55;;;;;;;10.36;100.00;100926.31;6179400;23;20001;-88
2022/10/22 00:11:28;;;;;;;7.82;4.20;;;;;;;10.33;100.00;100921.19;6181604;23;19997;-89
2022/10/22 00:13:53;;;;;;;9.32;4.13;;;;;;;10.29;100.00;100916.97;6181122;23;20335;-89
2022/10/22 00:16:19;;;;;;;8.05;4.13;;;;;;;10.26;100.00;100919.63;6180338;23;20009;-89
2022/10/22 00:18:44;;;;;;;9.18;4.32;;;;;;;10.27;100.00;100919.59;6182614;23;20080;-89
2022/10/22 00:21:10;;;;;;;8.13;4.10;;;;;;;10.26;100.00;100925.66;6181235;23;20058;-89
2022/10/22 00:23:38;;;;;;;14.70;4.32;;;;;;;10.22;100.00;100916.25;6183390;23;20007;-89
2022/10/22 00:26:04;;;;;;;8.80;4.25;;;;;;;10.23;100.00;100924.88;6181702;23;20063;-89
2022/10/22 00:28:29;;;;;;;10.27;4.40;;;;;;;10.20;100.00;100920.59;6182926;23;20005;-89
2022/10/22 00:30:59;;;;;;;8.25;4.28;;;;;;;10.18;100.00;100917.19;6181001;23;20021;-88
2022/10/22 00:33:26;;;;;;;10.05;4.35;;;;;;;10.14;100.00;100914.66;6182500;23;20012;-88
2022/10/22 00:35:51;;;;;;;13.68;4.65;;;;;;;10.12;100.00;100909.50;6180542;23;19996;-89
2022/10/22 00:38:16;;;;;;;7.25;4.13;;;;;;;10.13;100.00;100916.41;6183145;23;20028;-89
2022/10/22 00:40:42;;;;;;;8.38;4.40;;;;;;;10.12;100.00;100912.09;6183153;23;20458;-89
2022/10/22 00:43:15;;;;;;;7.13;4.45;;;;;;;10.11;100.00;100923.34;6181428;23;20399;-89
2022/10/22 00:45:42;;;;;;;8.68;4.00;;;;;;;10.11;100.00;100925.94;6179974;23;20008;-88
2022/10/22 00:48:10;;;;;;;8.95;4.57;;;;;;;10.11;100.00;100927.66;6181758;23;20001;-89
2022/10/22 00:50:46;;;;;;;9.80;4.40;;;;;;;10.08;100.00;100927.75;6182214;23;20013;-87
2022/10/22 00:53:18;;;;;;;10.77;4.65;;;;;;;10.06;100.00;100932.09;6182668;23;20071;-87
2022/10/22 00:55:46;;;;;;;7.72;4.32;;;;;;;10.05;100.00;100922.63;6183343;23;20036;-87
2022/10/22 00:58:12;;;;;;;11.00;4.55;;;;;;;10.03;100.00;100911.47;6181531;23;20080;-87
2022/10/22 01:00:38;;;;;;;10.63;4.40;;;;;;;10.03;100.00;100916.63;6182429;23;20035;-87
2022/10/22 01:03:03;;;;;;;10.18;4.55;;;;;;;9.99;100.00;100910.66;6182245;23;20398;-87
2022/10/22 01:05:32;;;;;;;10.52;4.13;;;;;;;9.99;100.00;100914.97;6182423;23;20023;-87
2022/10/22 01:07:57;;;;;;;9.13;3.90;;;;;;;9.98;100.00;100921.03;6182026;23;20449;-87
2022/10/22 01:10:37;;;;;;;7.05;4.22;;;;;;;9.98;100.00;100923.63;6180157;23;20000;-87
2022/10/22 01:13:12;;;;;;;9.95;4.40;;;;;;;9.98;100.00;100921.88;6182772;23;20001;-87
2022/10/22 01:15:48;;;;;;;10.73;4.60;;;;;;;9.95;100.00;100918.53;6181938;23;20556;-87
2022/10/22 01:18:55;;;;;;;7.45;4.15;;;;;;;9.95;100.00;100919.38;6182232;23;20459;-87
2022/10/22 01:21:29;;;;;;;9.18;4.40;;;;;;;9.90;100.00;100916.84;6109522;23;20016;-87
2022/10/22 01:24:32;;;;;;;8.02;4.57;;;;;;;9.90;100.00;100906.50;6182627;23;20004;-87
2022/10/22 01:27:18;;;;;;;11.60;4.40;;;;;;;9.89;100.00;100909.97;6182677;23;19997;-87
2022/10/22 01:29:50;;;;;;;12.70;4.38;;;;;;;9.87;100.00;100910.91;6180960;23;20035;-87
2022/10/22 01:32:19;;;;;;;6.43;4.35;;;;;;;9.86;100.00;100914.38;6182411;23;19997;-87
2022/10/22 01:34:50;;;;;;;10.05;4.78;;;;;;;9.84;100.00;100910.94;6178769;23;20024;-87
2022/10/22 01:37:18;;;;;;;12.93;6.10;;;;;;;9.84;100.00;100918.72;6180750;23;20051;-87
2022/10/22 01:39:46;;;;;;;9.95;5.00;;;;;;;9.84;100.00;100916.13;6180153;23;20062;-87
2022/10/22 01:42:14;;;;;;;8.27;4.82;;;;;;;9.82;100.00;100917.91;6182630;23;20004;-87
2022/10/22 01:44:40;;;;;;;11.20;4.60;;;;;;;9.82;100.00;100912.72;6181129;23;20735;-87
2022/10/22 01:47:23;;;;;;;10.43;5.20;;;;;;;9.81;100.00;100911.03;6182058;23;20572;-87
2022/10/22 01:50:14;;;;;;;11.38;4.82;;;;;;;9.82;100.00;100910.16;6179655;23;20012;-88
2022/10/22 01:53:16;;;;;;;10.32;4.80;;;;;;;9.79;100.00;100905.88;6182463;23;20019;-89
2022/10/22 01:55:51;;;;;;;10.63;4.57;;;;;;;9.78;100.00;100906.75;6180605;23;20430;-89
2022/10/22 01:58:31;;;;;;;9.68;4.80;;;;;;;9.79;100.00;100910.19;6182051;23;20080;-89
2022/10/22 02:01:09;;;;;;;9.98;5.03;;;;;;;9.77;100.00;100906.78;6180604;23;20430;-89
2022/10/22 02:03:45;;;;;;;10.77;4.85;;;;;;;9.78;100.00;100905.91;6181601;23;20016;-89
2022/10/22 02:06:18;;;;;;;11.20;4.95;;;;;;;9.79;100.00;100905.00;6182229;23;20013;-89
2022/10/22 02:08:44;;;;;;;8.23;4.88;;;;;;;9.77;100.00;100902.44;6181609;23;20016;-89
2022/10/22 02:11:12;;;;;;;8.90;4.45;;;;;;;9.76;100.00;100908.50;6181553;23;20311;-88
2022/10/22 02:13:51;;;;;;;8.68;4.53;;;;;;;9.78;100.00;100914.50;6181148;23;20037;-89
2022/10/22 02:16:27;;;;;;;8.02;4.90;;;;;;;9.78;100.00;100906.75;6181890;23;20036;-89
2022/10/22 02:18:55;;;;;;;14.30;5.32;;;;;;;9.76;100.00;100918.84;6181891;23;20012;-89
2022/10/22 02:21:21;;;;;;;12.10;4.90;;;;;;;9.76;100.00;100915.41;6181044;23;20005;-88
2022/10/22 02:23:47;;;;;;;8.18;5.15;;;;;;;9.77;100.00;100906.78;6181920;23;20008;-89
2022/10/22 02:26:20;;;;;;;10.45;5.22;;;;;;;9.80;100.00;100907.59;6181508;23;20166;-89
2022/10/22 02:29:05;;;;;;;9.48;4.88;;;;;;;9.80;100.00;100899.81;6179913;23;20001;-88
2022/10/22 02:31:35;;;;;;;10.07;4.95;;;;;;;9.79;100.00;100905.00;6181431;23;20047;-89
2022/10/22 02:34:08;;;;;;;15.18;5.13;;;;;;;9.80;100.00;100910.16;6181315;23;20005;-89
2022/10/22 02:36:37;;;;;;;13.18;5.53;;;;;;;9.78;100.00;100904.16;6179256;23;20005;-88
2022/10/22 02:39:03;;;;;;;9.63;5.43;;;;;;;9.81;100.00;100901.53;6181365;23;20005;-89
2022/10/22 02:41:29;;;;;;;9.55;4.68;;;;;;;9.80;100.00;100894.63;6180256;23;20001;-89
2022/10/22 02:43:55;;;;;;;11.55;5.47;;;;;;;9.79;100.00;100894.66;6181786;23;20025;-89
2022/10/22 02:46:21;;;;;;;15.95;5.75;;;;;;;9.80;100.00;100902.41;6181793;23;20008;-88
2022/10/22 02:48:46;;;;;;;11.88;4.75;;;;;;;9.80;100.00;100905.00;6182407;23;20000;-89
2022/10/22 02:51:12;;;;;;;11.00;5.15;;;;;;;9.79;100.00;100908.47;6179571;23;20020;-89
2022/10/22 02:53:37;;;;;;;12.27;5.03;;;;;;;9.79;100.00;100910.19;6181646;23;20087;-89
2022/10/22 02:56:03;;;;;;;14.68;6.07;;;;;;;9.78;100.00;100918.84;6181968;23;20081;-88
2022/10/22 02:58:29;;;;;;;10.45;5.10;;;;;;;9.78;100.00;100917.09;6181316;23;20390;-89
2022/10/22 03:00:54;;;;;;;8.77;5.07;;;;;;;9.77;100.00;100909.38;6182011;23;20093;-89
2022/10/22 03:03:19;;;;;;;8.30;5.07;;;;;;;9.78;100.00;100916.25;6182104;23;20239;-89
2022/10/22 03:05:44;;;;;;;7.25;4.90;;;;;;;9.75;100.00;100913.72;6181432;23;20008;-88
2022/10/22 03:08:10;;;;;;;10.40;5.32;;;;;;;9.79;100.00;100917.97;6181312;23;20087;-89
2022/10/22 03:10:35;;;;;;;11.77;5.53;;;;;;;9.75;100.00;100917.19;6180519;23;20095;-88
2022/10/22 03:13:00;;;;;;;10.00;5.03;;;;;;;9.76;100.00;100924.03;6182131;23;20517;-89
2022/10/22 03:15:26;;;;;;;11.52;5.40;;;;;;;9.77;100.00;100917.97;6180397;23;20005;-89
2022/10/22 03:17:51;;;;;;;9.38;5.28;;;;;;;9.77;100.00;100917.97;6181877;23;20088;-89
2022/10/22 03:20:16;;;;;;;11.13;5.20;;;;;;;9.74;100.00;100915.47;6179405;23;20001;-89
2022/10/22 03:22:43;;;;;;;11.90;4.95;;;;;;;9.77;100.00;100920.56;6181673;23;20709;-89
2022/10/22 03:25:12;;;;;;;9.77;5.47;;;;;;;9.76;100.00;100926.63;6180445;23;20009;-89
2022/10/22 03:27:40;;;;;;;8.52;4.80;;;;;;;9.74;100.00;100928.41;6181505;23;20096;-90
2022/10/22 03:30:06;;;;;;;11.95;4.75;;;;;;;9.72;100.00;100921.53;6181279;23;19997;-90
2022/10/22 03:32:31;;;;;;;15.40;5.53;;;;;;;9.74;100.00;100928.41;6181949;23;20005;-89
2022/10/22 03:34:56;;;;;;;10.07;5.40;;;;;;;9.73;100.00;100928.44;6181162;23;20016;-89
2022/10/22 03:37:23;;;;;;;11.38;6.13;;;;;;;9.73;100.00;100933.59;6181815;23;20009;-89
2022/10/22 03:39:50;;;;;;;11.60;5.28;;;;;;;9.74;100.00;100941.34;6181663;23;20436;-89
2022/10/22 03:42:16;;;;;;;12.25;5.63;;;;;;;9.71;100.00;100937.94;6181033;23;20004;-89
2022/10/22 03:44:42;;;;;;;11.15;5.70;;;;;;;9.73;100.00;100942.22;6204555;23;20009;-89
2022/10/22 03:47:08;;;;;;;10.15;5.20;;;;;;;9.77;100.00;100945.59;6180993;23;20001;-89
2022/10/22 03:49:33;;;;;;;9.43;5.18;;;;;;;9.76;100.00;100949.91;6180594;23;20047;-89
2022/10/22 03:52:05;;;;;;;8.85;4.93;;;;;;;9.76;100.00;100954.25;6181612;23;20011;-89
2022/10/22 03:54:31;;;;;;;9.80;5.03;;;;;;;9.71;100.00;100954.34;6180739;23;20020;-88
2022/10/22 03:56:56;;;;;;;10.95;5.45;;;;;;;9.70;100.00;100947.44;6180280;23;20025;-89
2022/10/22 03:59:22;;;;;;;12.98;5.57;;;;;;;9.75;100.00;100953.41;6180589;23;20016;-90
2022/10/22 04:01:47;;;;;;;9.97;5.63;;;;;;;9.76;100.00;100962.00;6179241;23;20064;-89
2022/10/22 04:04:12;;;;;;;10.82;5.03;;;;;;;9.77;100.00;100961.13;6181230;23;20247;-89
2022/10/22 04:06:38;;;;;;;9.40;5.30;;;;;;;9.77;100.00;100961.13;6181339;23;20000;-89
2022/10/22 04:09:03;;;;;;;8.98;5.00;;;;;;;9.74;100.00;100956.88;6180774;23;20327;-89
2022/10/22 04:11:28;;;;;;;9.02;4.90;;;;;;;9.78;100.00;100958.53;6181121;23;20015;-89
2022/10/22 04:13:54;;;;;;;10.00;4.78;;;;;;;9.77;100.00;100967.16;6181675;23;20008;-89
2022/10/22 04:16:21;;;;;;;9.73;4.95;;;;;;;9.78;100.00;100968.88;6180926;23;20003;-89
2022/10/22 04:18:48;;;;;;;9.73;5.00;;;;;;;9.77;100.00;100969.75;6181517;23;20443;-89
2022/10/22 04:21:16;;;;;;;10.23;4.85;;;;;;;9.75;100.00;100965.50;6178737;23;20001;-89
2022/10/22 04:23:47;;;;;;;10.90;5.10;;;;;;;9.76;100.00;100972.38;6181136;23;20074;-89
2022/10/22 04:26:12;;;;;;;11.55;5.75;;;;;;;9.73;100.00;100960.34;6180966;23;20427;-90
2022/10/22 04:28:38;;;;;;;10.85;4.88;;;;;;;9.75;100.00;100970.69;6181470;23;19997;-90
2022/10/22 04:31:11;;;;;;;8.93;5.10;;;;;;;9.74;100.00;100964.66;6181475;23;20004;-90
2022/10/22 04:33:37;;;;;;;11.85;5.03;;;;;;;9.75;100.00;100968.09;6179933;23;20005;-89
2022/10/22 04:36:11;;;;;;;10.80;5.38;;;;;;;9.74;100.00;100969.81;6179783;23;20012;-89
2022/10/22 04:38:40;;;;;;;11.48;5.00;;;;;;;9.74;100.00;100972.41;6180853;23;19997;-89
2022/10/22 04:41:13;;;;;;;11.48;5.13;;;;;;;9.74;100.00;100968.97;6180626;23;20005;-89
2022/10/22 04:43:39;;;;;;;12.98;5.38;;;;;;;9.70;100.00;100967.31;6181043;23;20008;-90
2022/10/22 04:46:05;;;;;;;8.50;4.88;;;;;;;9.69;100.00;100969.03;6179213;23;20029;-89
2022/10/22 04:48:30;;;;;;;9.77;5.10;;;;;;;9.70;100.00;100970.75;6180602;23;20064;-89
2022/10/22 04:50:57;;;;;;;12.23;4.60;;;;;;;9.71;100.00;100971.59;6180632;23;20076;-89
2022/10/22 04:53:23;;;;;;;9.05;4.97;;;;;;;9.73;100.00;100980.19;6180445;23;20013;-89
2022/10/22 04:55:48;;;;;;;9.02;4.43;;;;;;;9.72;100.00;100975.91;6178522;23;20062;-89
2022/10/22 04:58:13;;;;;;;12.30;5.05;;;;;;;9.69;100.00;100975.97;6180737;23;20075;-89
2022/10/22 05:00:39;;;;;;;8.98;4.63;;;;;;;9.68;100.00;100974.25;6180898;23;20012;-89
2022/10/22 05:03:04;;;;;;;9.88;4.70;;;;;;;9.71;100.00;100982.81;6181041;23;20005;-89
2022/10/22 05:05:29;;;;;;;7.88;4.30;;;;;;;9.65;100.00;100984.66;6179501;23;20040;-90
2022/10/22 05:07:54;;;;;;;10.30;4.50;;;;;;;9.65;100.00;100982.94;6181532;23;20057;-89
2022/10/22 05:10:20;;;;;;;10.52;5.03;;;;;;;9.65;100.00;100985.50;6182388;23;20229;-89
2022/10/22 05:12:45;;;;;;;10.40;5.07;;;;;;;9.67;100.00;100986.34;6182798;23;20036;-89
2022/10/22 05:15:10;;;;;;;7.68;4.40;;;;;;;9.65;100.00;100987.25;6182525;23;20307;-89
2022/10/22 05:17:36;;;;;;;9.52;4.55;;;;;;;9.63;100.00;100979.50;6182011;23;20021;-89
2022/10/22 05:20:02;;;;;;;10.82;4.22;;;;;;;9.65;100.00;100992.41;6181700;23;20008;-89
2022/10/22 05:22:28;;;;;;;9.18;4.38;;;;;;;9.67;100.00;100991.53;6182469;23;20031;-89
2022/10/22 05:24:53;;;;;;;8.77;4.25;;;;;;;9.67;100.00;100985.50;6180819;23;20009;-90
2022/10/22 05:27:18;;;;;;;8.37;4.40;;;;;;;9.70;100.00;100990.59;6178981;23;20005;-89
2022/10/22 05:29:43;;;;;;;6.85;4.18;;;;;;;9.71;100.00;100988.00;6179587;23;20232;-90
2022/10/22 05:32:09;;;;;;;8.40;4.00;;;;;;;9.74;100.00;100987.94;6181789;23;20008;-89
2022/10/22 05:34:35;;;;;;;9.02;4.28;;;;;;;9.79;100.00;100990.44;6182074;23;21090;-90
2022/10/22 05:37:00;;;;;;;9.32;4.68;;;;;;;9.83;100.00;100989.50;6181043;23;20039;-89
2022/10/22 05:39:26;;;;;;;10.75;4.85;;;;;;;9.91;100.00;100995.38;6182051;23;20442;-89
2022/10/22 05:41:52;;;;;;;8.90;4.65;;;;;;;9.94;100.00;100990.16;6180285;23;20009;-89
2022/10/22 05:44:18;;;;;;;9.32;4.68;;;;;;;9.98;100.00;100988.34;6176410;23;20009;-89
2022/10/22 05:46:44;;;;;;;9.10;5.18;;;;;;;10.02;100.00;100993.47;6179738;23;20055;-88
2022/10/22 05:49:15;;;;;;;9.65;4.25;;;;;;;10.07;100.00;100991.63;6179490;23;20135;-89
2022/10/22 05:51:40;;;;;;;12.90;4.88;;;;;;;10.15;100.00;101000.13;6181942;23;20028;-88
2022/10/22 05:54:07;;;;;;;8.32;4.50;;;;;;;10.19;100.00;101012.16;6181231;23;20466;-89
2022/10/22 05:56:34;;;;;;;8.15;4.38;;;;;;;10.18;100.00;101009.59;6182364;23;20029;-90
2022/10/22 05:59:00;;;;;;;12.88;4.63;;;;;;;10.21;100.00;101015.56;6181620;23;20008;-89
2022/10/22 06:01:28;;;;;;;7.97;4.43;;;;;;;10.20;100.00;101016.44;6182348;23;20004;-90
2022/10/22 06:03:56;;;;;;;10.65;4.68;;;;;;;10.18;100.00;101019.94;6181469;23;20001;-89
2022/10/22 06:06:27;;;;;;;7.43;4.30;;;;;;;10.19;100.00;101021.66;6182273;23;20012;-90
2022/10/22 06:08:54;;;;;;;8.32;4.45;;;;;;;10.20;100.00;101029.41;6178640;23;20043;-89
2022/10/22 06:11:21;;;;;;;11.52;4.88;;;;;;;10.22;100.00;101030.25;6180137;23;20315;-89
2022/10/22 06:13:48;;;;;;;8.70;4.70;;;;;;;10.22;100.00;101027.66;6180378;23;20060;-90
2022/10/22 06:16:14;;;;;;;9.65;4.55;;;;;;;10.23;100.00;101031.94;6180175;23;20080;-89
2022/10/22 06:18:39;;;;;;;9.13;4.72;;;;;;;10.23;100.00;101038.88;6180940;23;20025;-90
2022/10/22 06:21:07;;;;;;;10.45;4.07;;;;;;;10.23;100.00;101044.06;6180756;23;20009;-90
2022/10/22 06:23:33;;;;;;;8.63;4.60;;;;;;;10.20;100.00;101044.94;6181212;23;20052;-90
2022/10/22 06:25:59;;;;;;;10.10;4.47;;;;;;;10.22;100.00;101053.56;6181818;23;20013;-90
2022/10/22 06:28:25;;;;;;;8.70;4.47;;;;;;;10.19;100.00;101048.41;6180260;23;20036;-90
2022/10/22 06:30:50;;;;;;;9.35;4.28;;;;;;;10.17;100.00;101052.75;6181064;23;20004;-90
2022/10/22 06:33:16;;;;;;;9.25;4.50;;;;;;;10.20;100.00;101059.63;6181013;23;20277;-90
2022/10/22 06:35:41;;;;;;;9.07;4.00;;;;;;;10.24;100.00;101071.63;6179390;23;20001;-90
2022/10/22 06:38:06;;;;;;;10.13;4.72;;;;;;;10.24;100.00;101072.50;6180752;23;20005;-89
2022/10/22 06:40:32;;;;;;;11.18;4.45;;;;;;;10.28;100.00;101075.91;6180358;23;20005;-89
2022/10/22 06:42:59;;;;;;;8.30;4.22;;;;;;;10.33;100.00;101079.25;6177749;23;20001;-91
2022/10/22 06:45:24;;;;;;;8.65;4.20;;;;;;;10.34;100.00;101072.31;6181093;23;20027;-90
2022/10/22 06:47:49;;;;;;;8.80;4.28;;;;;;;10.43;100.00;101083.38;6181717;23;20442;-91
2022/10/22 06:50:15;;;;;;;9.10;4.57;;;;;;;10.46;100.00;101087.63;6180522;23;20008;-90
2022/10/22 06:52:40;;;;;;;10.27;4.70;;;;;;;10.47;100.00;101084.16;6178261;23;20009;-89
2022/10/22 06:55:06;;;;;;;10.57;4.47;;;;;;;10.53;100.00;101097.00;6181622;23;20000;-89
2022/10/22 06:57:31;;;;;;;6.88;3.72;;;;;;;10.53;100.00;101102.19;6181777;23;20366;-89
2022/10/22 06:59:57;;;;;;;9.35;4.35;;;;;;;10.60;100.00;101102.03;6179956;23;20001;-90
2022/10/22 07:02:22;;;;;;;17.77;4.65;;;;;;;10.63;100.00;101101.13;6182081;23;20005;-90
2022/10/22 07:04:47;;;;;;;13.45;5.00;;;;;;;10.73;100.00;101115.59;6181636;23;20008;-90
2022/10/22 07:07:13;;;;;;;13.82;5.35;;;;;;;10.82;100.00;101112.84;6181799;23;20009;-89
2022/10/22 07:09:39;;;;;;;14.23;5.40;;;;;;;10.87;100.00;101121.38;6181306;23;20004;-89
2022/10/22 07:12:05;;;;;;;13.82;4.80;;;;;;;10.93;100.00;101115.19;6179724;23;20004;-90
2022/10/22 07:14:30;;;;;;;14.02;5.22;;;;;;;10.96;100.00;101121.19;6178751;23;20013;-89
2022/10/22 07:16:55;;;;;;;18.45;4.95;;;;;;;11.01;100.00;101129.72;6181790;23;20004;-90
2022/10/22 07:19:21;;;;;;;20.77;4.90;;;;;;;11.04;100.00;101124.50;6181500;23;20008;-89
2022/10/22 07:21:46;;;;;;;17.30;5.20;;;;;;;11.16;100.00;101138.06;6181524;23;20032;-90
2022/10/22 07:24:12;;;;;;;19.05;5.18;;;;;;;11.24;100.00;101137.03;6180573;23;20009;-89
2022/10/22 07:26:37;;;;;;;14.80;5.18;;;;;;;11.31;100.00;101135.16;6180651;23;20024;-89
2022/10/22 07:29:03;;;;;;;18.35;5.63;;;;;;;11.35;100.00;101135.03;6179856;23;20055;-89
2022/10/22 07:31:29;;;;;;;17.30;5.38;;;;;;;11.43;100.00;101142.66;6181968;23;20005;-89
2022/10/22 07:33:55;;;;;;;16.45;5.55;;;;;;;11.46;100.00;101142.59;6181851;23;20000;-89
2022/10/22 07:36:20;;;;;;;17.85;4.90;;;;;;;11.47;100.00;101141.69;6179407;23;20004;-89
2022/10/22 07:38:48;;;;;;;14.20;4.77;;;;;;;11.47;100.00;101146.88;6177463;23;20005;-89
2022/10/22 07:41:15;;;;;;;14.20;4.90;;;;;;;11.53;100.00;101148.50;6180619;23;20341;-89
2022/10/22 07:43:41;;;;;;;15.98;5.75;;;;;;;11.57;100.00;101153.59;6180461;23;20517;-90
2022/10/22 07:46:07;;;;;;;12.50;5.68;;;;;;;11.63;100.00;101163.84;6178925;23;20591;-89
2022/10/22 07:48:34;;;;;;;22.45;6.55;;;;;;;11.72;100.00;101161.03;6181334;23;20000;-89
2022/10/22 07:51:00;;;;;;;23.02;6.95;;;;;;;11.78;100.00;101165.25;6180074;23;20076;-89
2022/10/22 07:53:27;;;;;;;18.25;7.10;;;;;;;11.86;100.00;101158.16;6178616;23;20048;-90
2022/10/22 07:55:53;;;;;;;21.90;7.47;;;;;;;12.01;100.00;101162.13;6180418;23;20005;-90
2022/10/22 07:58:20;;;;;;;22.00;7.75;;;;;;;12.14;100.00;101160.94;6178856;23;20012;-90
2022/10/22 08:00:46;;;;;;;23.50;7.72;;;;;;;12.20;100.00;101166.81;6180473;23;20012;-89
2022/10/22 08:03:12;;;;;;;20.83;7.07;;;;;;;12.27;100.00;101172.72;6179265;23;20005;-89
2022/10/22 08:05:38;;;;;;;19.60;6.90;;;;;;;12.34;100.00;101174.28;6180263;23;20001;-90
2022/10/22 08:08:05;;;;;;;22.58;7.13;;;;;;;12.38;100.00;101173.28;6177348;23;20019;-90
2022/10/22 08:10:31;;;;;;;18.25;6.43;;;;;;;12.53;100.00;101178.09;6177884;23;20087;-90
2022/10/22 08:12:57;;;;;;;22.95;5.80;;;;;;;12.66;100.00;101191.63;6179378;23;20009;-90
2022/10/22 08:15:24;;;;;;;19.38;6.22;;;;;;;12.74;100.00;101188.81;6179372;23;20330;-89
2022/10/22 08:17:50;;;;;;;22.98;5.55;;;;;;;12.88;100.00;101195.34;6181560;23;20355;-89
2022/10/22 08:20:15;;;;;;;15.60;4.82;;;;;;;12.94;100.00;101178.72;6180407;23;20550;-89
2022/10/22 08:22:41;;;;;;;13.93;4.97;;;;;;;13.08;100.00;101184.38;6179958;23;20029;-89
2022/10/22 08:25:06;;;;;;;17.88;5.18;;;;;;;13.18;100.00;101192.78;6177943;23;20005;-88
2022/10/22 08:27:32;;;;;;;16.88;4.88;;;;;;;13.24;100.00;101195.22;6179198;23;20473;-89
2022/10/22 08:29:57;;;;;;;11.75;4.07;;;;;;;13.23;100.00;101183.97;6180148;23;20050;-88
2022/10/22 08:32:22;;;;;;;17.90;4.15;;;;;;;13.31;100.00;101195.00;6180477;23;20326;-88
2022/10/22 08:34:48;;;;;;;12.18;3.90;;;;;;;13.35;100.00;101206.19;6178863;23;20347;-88
2022/10/22 08:37:13;;;;;;;17.70;3.88;;;;;;;13.40;100.00;101205.16;6180544;23;20008;-88
2022/10/22 08:39:40;;;;;;;15.32;3.53;;;;;;;13.44;100.00;101211.16;6181090;23;19997;-88
2022/10/22 08:42:24;;;;;;;15.43;3.60;;;;;;;13.49;100.00;101227.47;6180910;23;20343;-88
2022/10/22 08:45:07;;;;;;;14.30;3.63;;;;;;;13.61;100.00;101229.72;6180131;23;20435;-88
2022/10/22 08:47:41;;;;;;;13.55;3.20;;;;;;;13.79;100.00;101223.94;6181757;23;20005;-88
2022/10/22 08:50:14;;;;;;;11.30;3.20;;;;;;;13.92;100.00;101228.78;6179819;23;20012;-88
2022/10/22 08:52:43;;;;;;;11.13;2.83;;;;;;;14.09;100.00;101239.53;6180458;23;20043;-89
2022/10/22 08:55:13;;;;;;;15.35;3.45;;;;;;;14.23;100.00;101234.72;6181534;23;20009;-88
2022/10/22 08:57:50;;;;;;;12.88;2.83;;;;;;;14.33;100.00;101240.50;6182611;23;20011;-88
2022/10/22 09:00:18;;;;;;;9.65;3.00;;;;;;;14.47;100.00;101249.59;6181534;23;20453;-89
2022/10/22 09:03:14;;;;;;;13.77;3.33;;;;;;;14.57;100.00;101250.13;6182682;23;20011;-90
2022/10/22 09:06:08;;;;;;;7.30;2.58;;;;;;;14.57;100.00;101248.38;6181996;23;20082;-90
2022/10/22 09:08:35;;;;;;;15.77;2.60;;;;;;;14.57;100.00;101250.13;6182778;23;20005;-91
2022/10/22 09:11:20;;;;;;;8.65;2.50;;;;;;;14.59;100.00;101254.41;6181969;23;20474;-89
2022/10/22 09:13:46;;;;;;;9.65;2.28;;;;;;;14.60;100.00;101256.09;6184943;23;20367;-90
2022/10/22 09:16:37;;;;;;;8.57;2.38;;;;;;;14.64;100.00;101259.47;6182130;23;20008;-90
2022/10/22 09:19:27;;;;;;;11.43;2.30;;;;;;;14.77;100.00;101262.50;6181822;23;20008;-88
2022/10/22 09:22:06;;;;;;;8.80;2.28;;;;;;;14.86;100.00;101265.66;6181728;23;20012;-89
2022/10/22 09:24:38;;;;;;;11.73;2.53;;;;;;;14.92;100.00;101268.06;6181749;23;20079;-90
2022/10/22 09:27:13;;;;;;;12.50;2.47;;;;;;;14.97;100.00;101276.56;6182523;23;20008;-89
2022/10/22 09:29:39;;;;;;;14.43;2.75;;;;;;;15.01;100.00;101279.94;6182089;23;20001;-90
2022/10/22 09:32:05;;;;;;;8.35;2.70;;;;;;;15.00;100.00;101266.03;6180808;23;20009;-90
2022/10/22 09:34:32;;;;;;;9.68;2.75;;;;;;;15.02;100.00;101279.88;6181853;23;20036;-89
2022/10/22 09:37:05;;;;;;;10.82;2.70;;;;;;;14.97;100.00;101280.94;6182473;23;20032;-90
2022/10/22 09:39:36;;;;;;;16.85;2.90;;;;;;;15.00;100.00;101286.06;6181719;23;20442;-88
2022/10/22 09:42:02;;;;;;;9.45;2.67;;;;;;;15.02;100.00;101290.31;6182425;23;20450;-90
2022/10/22 09:44:28;;;;;;;11.65;2.78;;;;;;;15.07;100.00;101299.75;6180119;23;20001;-90
2022/10/22 09:46:53;;;;;;;8.70;2.85;;;;;;;15.03;100.00;101288.56;6182137;23;20009;-90
2022/10/22 09:49:22;;;;;;;11.50;2.70;;;;;;;15.11;100.00;101306.56;6181467;23;20084;-90
2022/10/22 09:51:55;;;;;;;10.35;2.70;;;;;;;15.17;100.00;101304.59;6180228;23;20005;-89
2022/10/22 09:54:25;;;;;;;8.82;2.90;;;;;;;15.21;100.00;101300.13;6177320;23;20024;-88
2022/10/22 09:56:56;;;;;;;10.25;2.70;;;;;;;15.32;100.00;101306.66;6178383;23;20040;-88
2022/10/22 09:59:31;;;;;;;9.93;2.90;;;;;;;15.33;100.00;101317.97;6179892;23;20016;-89
2022/10/22 10:02:00;;;;;;;10.02;2.58;;;;;;;15.32;100.00;101319.72;6179094;23;20005;-88
2022/10/22 10:04:25;;;;;;;11.45;3.03;;;;;;;15.35;100.00;101326.63;6181227;23;20327;-89
2022/10/22 10:06:55;;;;;;;9.32;2.80;;;;;;;15.33;100.00;101331.03;6181559;23;20449;-89
2022/10/22 10:09:22;;;;;;;7.50;2.67;;;;;;;15.37;100.00;101337.84;6181075;23;20009;-88
2022/10/22 10:12:17;;;;;;;9.52;2.42;;;;;;;15.40;100.00;101337.75;6180229;23;20408;-89
2022/10/22 10:15:02;;;;;;;9.45;2.50;;;;;;;15.39;100.00;101342.13;6179674;23;20065;-89
2022/10/22 10:17:35;;;;;;;8.90;2.88;;;;;;;15.45;100.00;101348.03;6181705;23;20132;-89
2022/10/22 10:20:29;;;;;;;11.35;3.05;;;;;;;15.51;100.00;101353.03;6180724;23;20085;-88
2022/10/22 10:23:06;;;;;;;7.97;2.70;;;;;;;15.52;100.00;101360.81;6181631;23;20059;-89
2022/10/22 10:25:38;;;;;;;8.02;2.80;;;;;;;15.53;100.00;101356.47;6178855;23;20466;-89
2022/10/22 10:28:30;;;;;;;7.95;2.90;;;;;;;15.62;100.00;101361.38;6180230;23;20009;-88
2022/10/22 10:31:13;;;;;;;8.75;3.03;;;;;;;15.72;100.00;101367.97;6181022;23;20389;-89
2022/10/22 10:34:11;;;;;;;9.27;2.80;;;;;;;15.80;100.00;101360.69;6178337;23;20335;-90
2022/10/22 10:36:52;;;;;;;8.68;3.13;;;;;;;15.92;100.00;101369.84;6176849;23;20346;-89
2022/10/22 10:39:38;;;;;;;8.93;3.20;;;;;;;16.02;100.00;101364.22;6179550;23;20005;-89
2022/10/22 10:42:42;;;;;;;8.93;2.67;;;;;;;16.09;100.00;101370.06;6177872;23;20087;-88
2022/10/22 10:45:19;;;;;;;10.50;2.78;;;;;;;16.12;100.00;101364.72;6176309;23;20015;-89
2022/10/22 10:48:22;;;;;;;11.70;3.10;;;;;;;16.12;100.00;101369.94;6181507;23;20007;-89
2022/10/22 10:51:32;;;;;;;10.43;3.00;;;;;;;16.12;100.00;101372.56;6179171;23;20064;-89
2022/10/22 10:54:17;;;;;;;7.20;2.90;;;;;;;16.20;100.00;101368.75;6181038;23;20024;-89
2022/10/22 10:57:01;;;;;;;10.60;3.30;;;;;;;16.28;100.00;101375.44;6179534;23;20013;-89
2022/10/22 10:59:34;;;;;;;9.40;3.00;;;;;;;16.32;99.94;101370.03;6181267;23;20033;-89
2022/10/22 11:02:27;;;;;;;13.32;3.10;;;;;;;16.29;100.00;101372.78;6181465;23;20020;-89
2022/10/22 11:05:14;;;;;;;11.48;3.00;;;;;;;16.27;100.00;101371.13;6179566;23;20446;-89
2022/10/22 11:07:46;;;;;;;8.02;3.10;;;;;;;16.23;100.00;101372.16;6179605;23;20024;-89
2022/10/22 11:10:18;;;;;;;9.38;3.40;;;;;;;16.30;100.00;101365.78;6179491;23;20001;-89
2022/10/22 11:12:47;;;;;;;11.07;3.67;;;;;;;16.38;100.00;101369.78;6179052;23;20019;-89
2022/10/22 11:15:32;;;;;;;12.25;3.65;;;;;;;16.46;100.00;101362.47;6180669;23;20009;-89
2022/10/22 11:18:15;;;;;;;10.77;3.50;;;;;;;16.55;99.83;101367.38;6181526;23;20099;-88
2022/10/22 11:20:50;;;;;;;9.90;3.15;;;;;;;16.63;98.96;101371.47;6180207;23;20446;-89
2022/10/22 11:23:23;;;;;;;13.13;3.72;;;;;;;16.80;99.08;101380.34;6180397;23;20439;-88
2022/10/22 11:25:49;;;;;;;15.88;3.88;;;;;;;16.87;95.33;101373.94;6179286;23;20005;-89
2022/10/22 11:28:40;;;;;;;12.38;3.80;;;;;;;16.94;96.02;101379.75;6180117;23;20000;-88
2022/10/22 11:31:13;;;;;;;11.05;3.70;;;;;;;16.84;93.25;101376.69;6180686;23;20024;-89